EW9922 Weather Reports


time (UTC)temp
C
wind
direction
speed
KPH
gust
KPH
rain 1hr
cm
rain 24hr
cm
rain mn
cm
humidity
%
barometer
mb
20200229103516 13 0.0 0.0 0.00 0.00 0.00 96 1007.7
20200229102516 13 0.0 0.0 0.00 0.00 0.00 95 1007.8
20200229101516 14 0.0 0.0 0.00 0.00 0.00 96 1008.2
20200229100517 14 0.0 1.6 0.00 0.00 0.00 97 1008.1
20200229095516 14 0.0 1.6 0.00 0.00 0.00 97 1008.3
20200229094516 14 0.0 1.6 0.00 0.00 0.00 97 1008.3
20200229093516 14 0.0 1.6 0.00 0.03 0.00 96 1008.3
20200229092516 14 45 1.6 3.2 0.00 0.03 0.00 97 1008.4
20200229091516 14 0.0 0.0 0.00 0.03 0.00 97 1008.5
20200229090516 14 0.0 0.0 0.00 0.03 0.00 96 1008.6
20200229085516 14 0.0 0.0 0.00 0.03 0.00 96 1008.7
20200229084516 14 0.0 0.0 0.00 0.03 0.00 96 1008.7
20200229083516 14 0 1.6 3.2 0.00 0.03 0.00 96 1009.0
20200229082516 14 0 3.2 4.8 0.00 0.03 0.00 97 1009.2
20200229081516 14 0 1.6 3.2 0.00 0.03 0.00 96 1009.2
20200229080516 14 0.0 0.0 0.00 0.03 0.00 96 1009.3
20200229075516 14 0.0 0.0 0.00 0.03 0.00 96 1009.3
20200229074515 14 0.0 0.0 0.00 0.03 0.00 96 1009.5
20200229073516 14 0.0 0.0 0.00 0.03 0.00 96 1009.5
20200229072516 14 0.0 0.0 0.00 0.03 0.00 95 1009.6
20200229071516 14 0.0 0.0 0.00 0.03 0.00 95 1009.6
20200229070516 15 0.0 0.0 0.00 0.03 0.00 95 1009.5
20200229065517 15 0.0 0.0 0.00 0.03 0.03 95 1009.6
20200229064517 15 0.0 0.0 0.00 0.03 0.03 95 1009.5
20200229063516 15 0.0 0.0 0.00 0.03 0.03 95 1009.4
20200229062516 15 0.0 0.0 0.00 0.03 0.03 94 1009.4
20200229061516 15 0.0 0.0 0.00 0.03 0.03 94 1009.6
20200229060516 15 0.0 0.0 0.00 0.03 0.03 94 1009.6
20200229055516 15 0.0 0.0 0.00 0.03 0.03 93 1009.6
20200229054517 15 0.0 0.0 0.00 0.03 0.03 92 1009.6
20200229053517 16 0.0 0.0 0.00 0.03 0.03 93 1009.6
20200229052516 16 0.0 0.0 0.00 0.03 0.03 93 1009.7
20200229051516 16 0.0 0.0 0.00 0.03 0.03 92 1009.6
20200229050517 16 0.0 0.0 0.00 0.03 0.03 93 1009.7
20200229045516 16 0.0 0.0 0.00 0.03 0.03 93 1009.8
20200229044517 16 0.0 0.0 0.00 0.03 0.03 92 1009.8
20200229043516 16 0.0 0.0 0.00 0.03 0.03 91 1009.8
20200229042516 16 0.0 0.0 0.00 0.03 0.03 90 1009.8
20200229041516 17 0.0 0.0 0.00 0.03 0.03 88 1009.7
20200229040516 17 337 1.6 3.2 0.00 0.03 0.03 87 1009.7
20200229035516 18 0.0 1.6 0.00 0.03 0.03 85 1009.7
20200229034516 18 337 1.6 3.2 0.00 0.03 0.03 85 1009.7
20200229033516 18 337 1.6 3.2 0.00 0.03 0.03 86 1009.7
20200229032517 18 0.0 3.2 0.00 0.03 0.03 87 1009.6
20200229031516 18 337 1.6 3.2 0.00 0.03 0.03 87 1009.6
20200229030517 18 0.0 0.0 0.00 0.03 0.03 87 1009.4
20200229025516 18 337 1.6 3.2 0.00 0.03 0.03 87 1009.4
20200229024516 18 337 1.6 3.2 0.00 0.03 0.03 87 1009.3
20200229023516 18 0.0 4.8 0.00 0.03 0.03 88 1009.2
20200229022517 18 315 1.6 4.8 0.00 0.03 0.03 87 1009.2
20200229021516 18 292 1.6 4.8 0.00 0.03 0.03 86 1009.0
20200229020516 18 292 1.6 4.8 0.00 0.03 0.03 86 1008.8
20200229015517 19 270 1.6 4.8 0.00 0.03 0.03 85 1008.6
20200229011516 21 270 3.2 4.8 0.00 0.03 0.03 81 1007.9
20200229010516 22 270 3.2 4.8 0.00 0.03 0.03 78 1007.8
20200229005516 23 270 3.2 6.4 0.00 0.03 0.03 76 1007.7
20200229004516 24 270 3.2 4.8 0.00 0.03 0.03 74 1007.6
20200229003516 25 270 3.2 6.4 0.00 0.03 0.03 72 1007.5
20200229002516 25 247 4.8 8.0 0.00 0.03 0.03 70 1007.5
20200229001516 25 270 4.8 11.3 0.00 0.03 0.03 70 1007.4
20200229000516 26 270 4.8 9.7 0.00 0.03 0.03 72 1007.3
20200228235515 26 247 4.8 11.3 0.00 0.03 0.03 71 1007.3
20200228234516 26 247 8.0 12.9 0.00 0.03 0.03 69 1007.4
20200228233516 26 247 8.0 14.5 0.00 0.03 0.03 67 1007.5
20200228232515 27 247 8.0 17.7 0.00 0.03 0.03 67 1007.4
20200228231515 27 247 8.0 14.5 0.00 0.03 0.03 67 1007.4
20200228230515 27 247 6.4 11.3 0.00 0.03 0.03 65 1007.3
20200228225515 28 247 8.0 14.5 0.00 0.03 0.03 66 1007.4
20200228224515 27 270 8.0 16.1 0.00 0.03 0.03 65 1007.3
20200228223515 28 247 8.0 17.7 0.00 0.03 0.03 63 1007.4
20200228222515 28 247 8.0 12.9 0.00 0.03 0.03 63 1007.5
20200228221516 28 247 8.0 14.5 0.00 0.03 0.03 63 1007.5
20200228220516 28 247 9.7 14.5 0.00 0.03 0.03 62 1007.7
20200228215516 28 247 8.0 12.9 0.00 0.03 0.03 62 1007.8
20200228214516 28 247 9.7 17.7 0.00 0.03 0.03 58 1007.8
20200228213515 28 270 9.7 17.7 0.00 0.03 0.03 59 1007.9
20200228212515 28 270 8.0 14.5 0.00 0.03 0.03 58 1008.0
20200228211515 28 247 11.3 17.7 0.00 0.03 0.03 60 1008.2
20200228210515 28 247 9.7 19.3 0.00 0.03 0.03 61 1008.3
20200228205515 28 247 11.3 17.7 0.00 0.03 0.03 58 1008.4
20200228204515 28 247 9.7 14.5 0.00 0.03 0.03 58 1008.4
20200228203515 28 247 9.7 17.7 0.00 0.03 0.03 59 1008.6
20200228202515 28 247 11.3 17.7 0.00 0.03 0.03 60 1008.7
20200228201516 28 247 11.3 19.3 0.00 0.03 0.03 61 1008.7
20200228200515 28 247 9.7 17.7 0.00 0.03 0.03 54 1008.8
20200228195515 28 270 8.0 14.5 0.00 0.03 0.03 57 1009.0
20200228194515 28 247 8.0 14.5 0.00 0.03 0.03 60 1009.1
20200228193517 28 270 6.4 14.5 0.00 0.03 0.03 60 1009.2
20200228192518 28 270 6.4 12.9 0.00 0.03 0.03 53 1009.2
20200228191517 28 270 6.4 12.9 0.00 0.03 0.03 53 1009.4
20200228190517 28 270 6.4 14.5 0.00 0.03 0.03 53 1009.6
20200228185518 28 270 6.4 12.9 0.00 0.03 0.03 57 1009.8
20200228184517 28 247 4.8 9.7 0.00 0.03 0.03 56 1009.8
20200228183517 27 270 3.2 9.7 0.00 0.03 0.03 57 1009.9
20200228182517 27 247 3.2 9.7 0.00 0.03 0.03 60 1010.0
20200228142541 15 45 1.6 3.2 0.00 0.03 0.03 95 1009.8
20200228141542 13 0.0 3.2 0.00 0.03 0.03 96 1009.7
20200228140542 13 0.0 0.0 0.00 0.03 0.03 96 1009.5
20200228135542 13 45 1.6 3.2 0.00 0.03 0.03 95 1009.5
20200228134542 13 0.0 3.2 0.00 0.03 0.03 95 1009.5
20200228133542 13 0.0 0.0 0.00 0.03 0.03 93 1009.4
20200228132541 13 45 1.6 3.2 0.00 0.03 0.03 94 1009.2
20200228131541 13 0.0 0.0 0.00 0.03 0.03 94 1009.2
20200228130542 13 0.0 0.0 0.00 0.03 0.03 93 1009.1
20200228125541 13 45 1.6 3.2 0.00 0.03 0.03 93 1008.9
20200228124541 13 45 1.6 3.2 0.00 0.03 0.03 93 1008.8
20200228123541 13 45 3.2 4.8 0.00 0.03 0.03 92 1008.7
20200228122541 13 0.0 0.0 0.00 0.03 0.03 93 1008.8
20200228121542 13 67 3.2 3.2 0.00 0.03 0.03 93 1008.7
20200228120542 13 0.0 1.6 0.00 0.03 0.03 94 1008.6
20200228115544 13 0.0 0.0 0.00 0.03 0.03 94 1008.4
20200228114541 13 0.0 0.0 0.00 0.03 0.03 94 1008.4
20200228113542 13 0.0 0.0 0.00 0.03 0.03 94 1008.3
20200228112541 13 0.0 1.6 0.00 0.03 0.03 93 1008.2
20200228111541 13 0.0 1.6 0.00 0.03 0.03 93 1008.3
20200228110541 14 67 1.6 4.8 0.00 0.03 0.03 92 1008.3
20200228105542 14 0.0 0.0 0.00 0.03 0.03 92 1008.3
20200228104541 14 0.0 0.0 0.00 0.03 0.03 92 1008.2